»·PEaware :: SKW3457 KSAN-KSBP

SKW3457 :: KSAN-KSBP

FLIGHT INFORMATION

Flight Status: Arrived
Operator:
SkyWest Airlines
More flights by this operator :: More flights under this callsign
Pilot: Chandler S. (807)
Aircraft: EMBRAER EMB-170/175
(E170)
More flights by this aircraft type
Origin: KSAN San Diego Intl-Lindbergh
United States
Destination: KSBP San Luis Co Regl
United States
More flights between these airports :: More routes between these airports
Route: PADRZ2 IKAYE RZS MQO
File this flight plan on PilotEdge
Remarks:
Altitude:
(Current/Filed)
26,000ft
Speed:
(Current/Filed)
400kts
Departed: 07-Feb-20 12:32 PM
Arrived: 07-Feb-20 01:14 PM
Distance/Time
Traveled:
228nm/0:42
Distance/Time
To Go:
Arrived

Flight Plot

Page will automatically refresh every two minutes.

Flight plan parsing failed; only flown route is shown


Map Options




Map Legend


Flown Route
Filed Route
Departure Airport
Arrival Airport
Navaid (VOR, NDB)
Fix

Horizontal Profiles

Position Reports

Time Latitude Longitude Heading Altitude Ground
Speed
07-Feb-20 12:06 32.733083 -117.200682 0 25ft 0kts
07-Feb-20 12:07 32.733083 -117.200682 280 25ft 0kts
07-Feb-20 12:08 32.733083 -117.200682 280 25ft 0kts
07-Feb-20 12:09 32.733083 -117.200682 280 25ft 0kts
07-Feb-20 12:10 32.733083 -117.200682 280 25ft 0kts
07-Feb-20 12:11 32.733083 -117.200682 280 25ft 0kts
07-Feb-20 12:12 32.733083 -117.200682 280 25ft 0kts
07-Feb-20 12:13 32.733083 -117.200682 280 25ft 0kts
07-Feb-20 12:14 32.733083 -117.200682 280 25ft 0kts
07-Feb-20 12:15 32.733083 -117.200682 280 25ft 0kts
07-Feb-20 12:16 32.733083 -117.200682 280 25ft 0kts
07-Feb-20 12:17 32.733083 -117.200682 280 25ft 0kts
07-Feb-20 12:18 32.733083 -117.200682 280 25ft 0kts
07-Feb-20 12:19 32.733083 -117.200682 280 25ft 0kts
07-Feb-20 12:20 32.733083 -117.200682 280 25ft 0kts
07-Feb-20 12:21 32.733071 -117.200610 280 25ft 2kts
07-Feb-20 12:22 32.732753 -117.200062 343 25ft 2kts
07-Feb-20 12:23 32.732579 -117.200039 0 24ft 0kts
07-Feb-20 12:24 32.732670 -117.200035 3 25ft 4kts
07-Feb-20 12:25 32.734268 -117.199612 14 25ft 0kts
07-Feb-20 12:26 32.734178 -117.196509 105 24ft 20kts
07-Feb-20 12:27 32.732973 -117.191528 106 25ft 13kts
07-Feb-20 12:28 32.731520 -117.185390 108 24ft 25kts
07-Feb-20 12:29 32.729810 -117.178448 106 25ft 20kts
07-Feb-20 12:30 32.729669 -117.176176 70 24ft 10kts
07-Feb-20 12:31 32.739279 -117.206281 307 839ft 225kts
07-Feb-20 12:32 32.773028 -117.268587 301 5052ft 237kts
07-Feb-20 12:33 32.810276 -117.334871 307 8427ft 247kts
07-Feb-20 12:34 32.852499 -117.400446 308 11416ft 256kts
07-Feb-20 12:35 32.896594 -117.468865 308 14055ft 267kts
07-Feb-20 12:36 32.945290 -117.544633 308 15017ft 329kts
07-Feb-20 12:37 32.999266 -117.628868 308 18213ft 324kts
07-Feb-20 12:38 33.055123 -117.716217 309 21093ft 340kts
07-Feb-20 12:39 33.120587 -117.787292 321 23596ft 351kts
07-Feb-20 12:40 33.193854 -117.862090 318 25938ft 371kts
07-Feb-20 12:41 33.276258 -117.960116 316 26040ft 423kts
07-Feb-20 12:42 33.359521 -118.059598 316 26014ft 423kts
07-Feb-20 12:43 33.442937 -118.159579 316 26012ft 423kts
07-Feb-20 12:44 33.517662 -118.249380 316 26014ft 423kts
07-Feb-20 12:45 33.600903 -118.349695 316 26017ft 423kts
07-Feb-20 12:46 33.683920 -118.450030 316 26016ft 423kts
07-Feb-20 12:47 33.767100 -118.550849 316 26016ft 423kts
07-Feb-20 12:49 33.848697 -118.650045 316 26015ft 423kts
07-Feb-20 12:50 33.931759 -118.751306 316 26016ft 423kts
07-Feb-20 12:51 34.014236 -118.852117 315 26020ft 422kts
07-Feb-20 12:52 34.096638 -118.953171 314 26024ft 422kts
07-Feb-20 12:53 34.169436 -119.064738 301 26024ft 425kts
07-Feb-20 12:54 34.229475 -119.188191 300 26019ft 424kts
07-Feb-20 12:55 34.288613 -119.310458 300 25080ft 411kts
07-Feb-20 12:56 34.345727 -119.428916 301 23437ft 403kts
07-Feb-20 12:57 34.399373 -119.540580 301 21526ft 369kts
07-Feb-20 12:58 34.449596 -119.645432 301 19456ft 354kts
07-Feb-20 12:59 34.498031 -119.746851 301 17437ft 345kts
07-Feb-20 13:00 34.557972 -119.834530 313 15435ft 334kts
07-Feb-20 13:01 34.619998 -119.916217 313 13430ft 325kts
07-Feb-20 13:02 34.680386 -119.995858 313 11541ft 309kts
07-Feb-20 13:03 34.735788 -120.069090 312 9857ft 275kts
07-Feb-20 13:04 34.787125 -120.137125 312 8357ft 270kts
07-Feb-20 13:05 34.837786 -120.204444 313 8027ft 272kts
07-Feb-20 13:06 34.889259 -120.272836 313 7666ft 275kts
07-Feb-20 13:06 34.931332 -120.328895 313 6477ft 262kts
07-Feb-20 13:08 34.987456 -120.403817 313 4985ft 253kts
07-Feb-20 13:09 35.040369 -120.456853 322 4044ft 232kts
07-Feb-20 13:09 35.082629 -120.497631 322 4026ft 232kts
07-Feb-20 13:10 35.136746 -120.538911 336 3291ft 230kts
07-Feb-20 13:12 35.198491 -120.574041 314 1882ft 184kts
07-Feb-20 13:12 35.219041 -120.609102 304 909ft 136kts
07-Feb-20 13:13 35.237815 -120.641940 303 219ft 39kts
07-Feb-20 13:15 35.238481 -120.641315 124 218ft 9kts
07-Feb-20 13:15 35.237631 -120.637520 18 218ft 8kts
07-Feb-20 13:16 35.238010 -120.637481 0 219ft 0kts
07-Feb-20 13:17 35.238010 -120.637481 0 219ft 0kts

Navigation Log

Ident Type
Flight plan parsing failed, navigation log unavailable